createdAt,value
2022-09-04T00:02:13.519Z,16.6
2022-09-04T00:04:40.130Z,16.6
2022-09-04T00:07:06.775Z,16.6
2022-09-04T00:09:31.883Z,16.6
2022-09-04T00:11:58.512Z,16.6
2022-09-04T00:14:25.123Z,16.6
2022-09-04T00:16:51.761Z,16.6
2022-09-04T00:19:18.377Z,16.5
2022-09-04T00:21:44.989Z,16.4
2022-09-04T00:24:11.619Z,16.4
2022-09-04T00:26:38.254Z,16.3
2022-09-04T00:29:04.867Z,16.3
2022-09-04T00:31:31.510Z,16.3
2022-09-04T00:33:58.110Z,16.2
2022-09-04T00:36:24.737Z,16.2
2022-09-04T00:38:51.361Z,16.2
2022-09-04T00:41:16.536Z,16.1
2022-09-04T00:43:43.106Z,16.1
2022-09-04T00:46:09.754Z,16
2022-09-04T00:48:36.350Z,15.9
2022-09-04T00:51:02.976Z,15.8
2022-09-04T00:53:29.598Z,15.9
2022-09-04T00:55:56.232Z,15.8
2022-09-04T00:58:22.848Z,15.6
2022-09-04T01:00:49.464Z,15.5
2022-09-04T01:03:16.091Z,15.3
2022-09-04T01:05:42.710Z,15.2
2022-09-04T01:08:09.351Z,15.3
2022-09-04T01:10:35.971Z,15.2
2022-09-04T01:13:01.096Z,15.2
2022-09-04T01:15:27.713Z,15.1
2022-09-04T01:17:54.348Z,15.1
2022-09-04T01:20:20.954Z,15.1
2022-09-04T01:22:47.570Z,15
2022-09-04T01:25:14.207Z,14.9
2022-09-04T01:27:40.817Z,14.9
2022-09-04T01:30:07.452Z,14.9
2022-09-04T01:32:34.072Z,14.9
2022-09-04T01:35:00.715Z,14.8
2022-09-04T01:37:27.322Z,14.8
2022-09-04T01:39:53.947Z,14.9
2022-09-04T01:42:20.564Z,14.9
2022-09-04T01:44:45.687Z,15
2022-09-04T01:47:12.350Z,15
2022-09-04T01:49:38.934Z,15.1
2022-09-04T01:52:05.565Z,15.1
2022-09-04T01:54:32.186Z,15.2
2022-09-04T01:56:58.809Z,15.3
2022-09-04T01:59:25.426Z,15.5
2022-09-04T02:01:52.046Z,15.6
2022-09-04T02:04:18.680Z,15.6
2022-09-04T02:06:45.291Z,15.6
2022-09-04T02:11:38.535Z,15.6
2022-09-04T02:14:05.155Z,15.7
2022-09-04T02:16:30.285Z,15.7
2022-09-04T02:18:56.911Z,15.7
2022-09-04T02:21:23.537Z,15.7
2022-09-04T02:23:50.154Z,15.7
2022-09-04T02:26:16.765Z,15.7
2022-09-04T02:28:43.418Z,15.7
2022-09-04T02:31:10.029Z,15.7
2022-09-04T02:33:36.638Z,15.6
2022-09-04T02:36:03.279Z,15.6
2022-09-04T02:38:29.897Z,15.7
2022-09-04T02:40:56.517Z,15.6
2022-09-04T02:43:23.147Z,15.7
2022-09-04T02:45:49.760Z,15.7
2022-09-04T02:48:14.886Z,15.7
2022-09-04T02:50:41.495Z,15.6
2022-09-04T02:53:08.138Z,15.7
2022-09-04T02:55:34.745Z,15.7
2022-09-04T02:58:01.403Z,15.6
2022-09-04T03:00:28.002Z,15.7
2022-09-04T03:02:54.631Z,15.7
2022-09-04T03:05:21.240Z,15.6
2022-09-04T03:07:47.875Z,15.6
2022-09-04T03:10:14.478Z,15.6
2022-09-04T03:12:41.116Z,15.7
2022-09-04T03:15:07.722Z,15.7
2022-09-04T03:17:34.387Z,15.7
2022-09-04T03:20:01.015Z,15.6
2022-09-04T03:22:26.098Z,15.6
2022-09-04T03:24:52.716Z,15.6
2022-09-04T03:27:19.348Z,15.6
2022-09-04T03:29:45.959Z,15.5
2022-09-04T03:32:11.104Z,15.5
2022-09-04T03:34:37.719Z,15.4
2022-09-04T03:37:04.330Z,15.3
2022-09-04T03:39:30.967Z,15.3
2022-09-04T03:41:57.620Z,15.3
2022-09-04T03:44:24.207Z,15.3
2022-09-04T03:46:50.830Z,15.3
2022-09-04T03:49:17.450Z,15.2
2022-09-04T03:51:44.090Z,15.2
2022-09-04T03:54:10.692Z,15.2
2022-09-04T03:56:37.347Z,15.1
2022-09-04T03:59:03.962Z,15.1
2022-09-04T04:01:30.613Z,15
2022-09-04T04:03:55.697Z,15
2022-09-04T04:06:22.353Z,14.9
2022-09-04T04:08:48.929Z,14.8
2022-09-04T04:11:15.612Z,14.8
2022-09-04T04:13:42.206Z,14.8
2022-09-04T04:16:08.809Z,14.8
2022-09-04T04:18:35.425Z,14.8
2022-09-04T04:21:02.041Z,14.8
2022-09-04T04:23:28.669Z,14.8
2022-09-04T04:25:55.299Z,14.8
2022-09-04T04:28:21.907Z,14.8
2022-09-04T04:30:48.543Z,14.9
2022-09-04T04:33:15.168Z,14.9
2022-09-04T04:35:40.285Z,14.9
2022-09-04T04:38:06.927Z,14.9
2022-09-04T04:40:33.533Z,14.9
2022-09-04T04:43:00.152Z,14.9
2022-09-04T04:45:26.771Z,14.9
2022-09-04T04:47:53.395Z,14.9
2022-09-04T04:50:20.053Z,14.8
2022-09-04T04:52:46.641Z,14.8
2022-09-04T04:55:13.267Z,14.8
2022-09-04T04:57:39.899Z,14.8
2022-09-04T05:00:06.506Z,14.9
2022-09-04T05:02:33.136Z,14.9
2022-09-04T05:04:59.770Z,14.9
2022-09-04T05:07:24.881Z,14.8
2022-09-04T05:09:51.510Z,14.8
2022-09-04T05:12:18.127Z,14.8
2022-09-04T05:14:44.782Z,14.7
2022-09-04T05:17:11.377Z,14.7
2022-09-04T05:19:38.027Z,14.7
2022-09-04T05:22:04.662Z,14.8
2022-09-04T05:24:31.240Z,14.8
2022-09-04T05:26:57.875Z,14.8
2022-09-04T05:29:24.502Z,14.8
2022-09-04T05:31:51.107Z,14.9
2022-09-04T05:34:17.769Z,14.9
2022-09-04T05:36:44.394Z,14.7
2022-09-04T05:39:10.987Z,14.8
2022-09-04T05:41:36.137Z,14.8
2022-09-04T05:44:02.719Z,14.8
2022-09-04T05:46:29.341Z,14.8
2022-09-04T05:48:55.978Z,14.9
2022-09-04T05:51:22.613Z,15
2022-09-04T05:53:49.211Z,15
2022-09-04T05:56:15.846Z,15
2022-09-04T05:58:42.464Z,15.1
2022-09-04T06:01:09.086Z,15
2022-09-04T06:03:35.701Z,15.2
2022-09-04T06:06:02.366Z,15.3
2022-09-04T06:08:28.948Z,15.3
2022-09-04T06:10:55.584Z,15.3
2022-09-04T06:13:20.709Z,15.1
2022-09-04T06:15:47.307Z,15.1
2022-09-04T06:18:13.980Z,15.2
2022-09-04T06:20:40.559Z,15.3
2022-09-04T06:23:07.195Z,15.3
2022-09-04T06:25:33.813Z,15.1
2022-09-04T06:28:00.430Z,15.2
2022-09-04T06:30:27.053Z,15.2
2022-09-04T06:32:53.687Z,15.4
2022-09-04T06:35:20.292Z,15.7
2022-09-04T06:37:46.956Z,16
2022-09-04T06:40:13.595Z,15.5
2022-09-04T06:42:40.193Z,15.5
2022-09-04T06:45:06.807Z,15.8
2022-09-04T06:47:31.931Z,16.2
2022-09-04T06:49:58.548Z,16.4
2022-09-04T06:52:25.166Z,16.2
2022-09-04T06:54:51.780Z,16.1
2022-09-04T06:57:18.419Z,16.5
2022-09-04T06:59:45.064Z,16.6
2022-09-04T07:02:11.661Z,17.1
2022-09-04T07:04:38.288Z,17.6
2022-09-04T07:07:04.906Z,17.6
2022-09-04T07:09:31.527Z,17.5
2022-09-04T07:11:58.150Z,17.3
2022-09-04T07:14:24.788Z,17.2
2022-09-04T07:16:51.398Z,17.7
2022-09-04T07:19:16.527Z,19.6
2022-09-04T07:21:43.143Z,22.2
2022-09-04T07:24:09.768Z,22.7
2022-09-04T07:26:36.381Z,22.8
2022-09-04T07:29:03.001Z,23.7
2022-09-04T07:31:29.665Z,25.1
2022-09-04T07:33:56.246Z,26.2
2022-09-04T07:36:22.876Z,26.7
2022-09-04T07:38:49.494Z,26.9
2022-09-04T07:41:16.122Z,27.6
2022-09-04T07:43:42.749Z,28.3
2022-09-04T07:46:09.371Z,28.7
2022-09-04T07:48:36.033Z,29.2
2022-09-04T07:51:01.122Z,29.4
2022-09-04T07:53:27.738Z,29.2
2022-09-04T07:55:54.361Z,29.6
2022-09-04T07:58:20.980Z,30.2
2022-09-04T08:00:47.608Z,30.4
2022-09-04T08:03:14.234Z,31.1
2022-09-04T08:05:40.849Z,31.6
2022-09-04T08:08:07.508Z,32
2022-09-04T08:10:34.127Z,31.3
2022-09-04T08:13:00.754Z,31.2
2022-09-04T08:15:27.354Z,31.4
2022-09-04T08:17:53.968Z,32.2
2022-09-04T08:20:20.607Z,32.8
2022-09-04T08:22:47.270Z,33.1
2022-09-04T08:25:13.828Z,33.3
2022-09-04T08:27:40.452Z,33.6
2022-09-04T08:30:05.588Z,34
2022-09-04T08:32:32.209Z,34.2
2022-09-04T08:34:58.838Z,34.1
2022-09-04T08:37:25.450Z,34.5
2022-09-04T08:39:52.088Z,33.2
2022-09-04T08:42:18.697Z,33
2022-09-04T08:44:45.323Z,33.4
2022-09-04T08:47:11.963Z,33.7
2022-09-04T08:49:38.586Z,33.2
2022-09-04T08:52:05.178Z,33.3
2022-09-04T08:54:31.799Z,34.2
2022-09-04T08:56:58.439Z,35.1
2022-09-04T08:59:25.074Z,34.9
2022-09-04T09:01:50.198Z,35.2
2022-09-04T09:04:16.836Z,35.8
2022-09-04T09:06:43.428Z,35.6
2022-09-04T09:09:10.047Z,35.6
2022-09-04T09:11:36.677Z,35.4
2022-09-04T09:14:03.302Z,35
2022-09-04T09:16:29.915Z,35.8
2022-09-04T09:18:56.534Z,35.5
2022-09-04T09:21:23.168Z,36.1
2022-09-04T09:23:49.776Z,35
2022-09-04T09:26:16.405Z,33.2
2022-09-04T09:28:43.045Z,34.1
2022-09-04T09:31:09.655Z,33.9
2022-09-04T09:33:36.281Z,34.8
2022-09-04T09:36:01.420Z,35.1
2022-09-04T09:38:28.065Z,35.4
2022-09-04T09:40:54.667Z,34.7
2022-09-04T09:45:47.895Z,33.8
2022-09-04T09:48:14.512Z,34.5
2022-09-04T09:50:41.156Z,34.7
2022-09-04T09:53:07.803Z,35.3
2022-09-04T09:55:34.395Z,34.8
2022-09-04T09:58:01.006Z,34.4
2022-09-04T10:02:54.260Z,34.4
2022-09-04T10:05:20.893Z,34.7
2022-09-04T10:07:46.018Z,35.2
2022-09-04T10:10:12.663Z,35.4
2022-09-04T10:12:39.279Z,35.2
2022-09-04T10:15:05.857Z,35.1
2022-09-04T10:17:32.490Z,34.3
2022-09-04T10:19:59.122Z,33.9
2022-09-04T10:22:25.762Z,32.4
2022-09-04T10:24:52.386Z,31.6
2022-09-04T10:27:19.023Z,30.9
2022-09-04T10:29:45.666Z,30.6
2022-09-04T10:34:38.875Z,30.1
2022-09-04T10:37:03.997Z,30.1
2022-09-04T10:39:29.117Z,30.1
2022-09-04T10:44:22.371Z,30
2022-09-04T10:46:48.980Z,29.7
2022-09-04T10:49:15.592Z,29.6
2022-09-04T10:51:42.218Z,29.6
2022-09-04T10:54:08.857Z,29.8
2022-09-04T10:56:35.469Z,29.8
2022-09-04T10:59:02.088Z,29.7
2022-09-04T11:01:28.722Z,29.4
2022-09-04T11:03:55.363Z,28.9
2022-09-04T11:06:21.972Z,29.1
2022-09-04T11:08:48.641Z,28.9
2022-09-04T11:11:15.233Z,28.9
2022-09-04T11:13:41.831Z,29.1
2022-09-04T11:16:08.482Z,29.1
2022-09-04T11:18:35.110Z,28.7
2022-09-04T11:21:00.217Z,28.9
2022-09-04T11:23:26.836Z,29.3
2022-09-04T11:25:53.456Z,29.5
2022-09-04T11:28:20.079Z,29.4
2022-09-04T11:30:45.219Z,29.4
2022-09-04T11:33:10.341Z,29.3
2022-09-04T11:35:36.973Z,29.1
2022-09-04T11:38:03.599Z,29.4
2022-09-04T11:40:30.213Z,29.6
2022-09-04T11:42:55.368Z,29.6
2022-09-04T11:45:22.018Z,29.9
2022-09-04T11:47:48.603Z,30.3
2022-09-04T11:50:15.233Z,29.8
2022-09-04T11:52:41.843Z,29.3
2022-09-04T11:55:08.470Z,28.9
2022-09-04T11:57:35.103Z,28.7
2022-09-04T12:00:01.743Z,29.1
2022-09-04T12:02:28.364Z,29.4
2022-09-04T12:04:54.985Z,29.3
2022-09-04T12:07:21.605Z,29.4
2022-09-04T12:09:48.227Z,28.9
2022-09-04T12:12:14.851Z,28.6
2022-09-04T12:14:41.463Z,28.6
2022-09-04T12:17:06.567Z,29
2022-09-04T12:19:33.248Z,29.1
2022-09-04T12:21:59.834Z,29.2
2022-09-04T12:24:26.436Z,29.3
2022-09-04T12:26:53.075Z,29.6
2022-09-04T12:31:46.358Z,29.1
2022-09-04T12:34:12.991Z,29.1
2022-09-04T12:36:39.562Z,29.3
2022-09-04T12:39:06.191Z,29.6
2022-09-04T12:41:32.792Z,29.6
2022-09-04T12:43:59.430Z,29.4
2022-09-04T12:46:26.058Z,29.1
2022-09-04T12:48:51.172Z,29.1
2022-09-04T12:51:17.813Z,29.2
2022-09-04T12:53:44.441Z,28.7
2022-09-04T12:56:11.057Z,28.8
2022-09-04T13:01:04.303Z,29.2
2022-09-04T13:03:30.930Z,29.2
2022-09-04T13:05:57.571Z,29.1
2022-09-04T13:08:24.195Z,28.7
2022-09-04T13:10:50.806Z,28.5
2022-09-04T13:15:44.114Z,28.5
2022-09-04T13:20:37.297Z,28.8
2022-09-04T13:23:02.443Z,29.3
2022-09-04T13:25:29.063Z,29.3
2022-09-04T13:27:55.686Z,29.5
2022-09-04T13:30:22.284Z,29.7
2022-09-04T13:32:48.931Z,29.8
2022-09-04T13:35:14.075Z,29.5
2022-09-04T13:40:07.291Z,29.6
2022-09-04T13:42:33.955Z,29.8
2022-09-04T13:45:00.529Z,29.9
2022-09-04T13:47:27.192Z,29.9
2022-09-04T13:49:53.787Z,29.8
2022-09-04T13:54:47.031Z,29.5
2022-09-04T13:57:12.181Z,29.3
2022-09-04T13:59:38.800Z,29
2022-09-04T14:04:30.530Z,28.9
2022-09-04T14:09:23.777Z,28.3
2022-09-04T14:11:50.423Z,28.2
2022-09-04T14:14:17.029Z,28.4
2022-09-04T14:16:43.659Z,28.3
2022-09-04T14:19:10.269Z,28.6
2022-09-04T14:21:36.902Z,28.7
2022-09-04T14:24:03.543Z,28.7
2022-09-04T14:26:30.181Z,28.7
2022-09-04T14:28:56.817Z,28.7
2022-09-04T14:31:23.417Z,28.7
2022-09-04T14:33:48.520Z,28.5
2022-09-04T14:36:15.145Z,28.5
2022-09-04T14:38:41.768Z,28.6
2022-09-04T14:43:35.006Z,28.3
2022-09-04T14:46:01.636Z,28.2
2022-09-04T14:48:28.276Z,28.1
2022-09-04T14:50:54.888Z,28.1
2022-09-04T14:53:21.515Z,28.3
2022-09-04T14:58:14.780Z,28.2
2022-09-04T15:00:41.402Z,28.2
2022-09-04T15:03:08.010Z,28.1
2022-09-04T15:05:33.149Z,27.9
2022-09-04T15:07:59.771Z,27.8
2022-09-04T15:12:53.000Z,27.6
2022-09-04T15:15:19.625Z,27.5
2022-09-04T15:17:46.264Z,27.4
2022-09-04T15:22:39.501Z,27
2022-09-04T15:25:06.125Z,26.9
2022-09-04T15:29:59.391Z,26.8
2022-09-04T15:32:25.984Z,26.8
2022-09-04T15:37:19.245Z,26.8
2022-09-04T15:42:10.990Z,26.6
2022-09-04T15:44:37.612Z,26.6
2022-09-04T15:47:04.241Z,26.7
2022-09-04T15:51:57.488Z,26.6
2022-09-04T15:56:50.737Z,26.5
2022-09-04T15:59:17.352Z,26.4
2022-09-04T16:01:43.983Z,26.4
2022-09-04T16:04:10.596Z,26.3
2022-09-04T16:06:37.225Z,26.3
2022-09-04T16:11:30.456Z,26.4
2022-09-04T16:13:55.590Z,26.5
2022-09-04T16:16:22.216Z,26.6
2022-09-04T16:21:15.472Z,26.7
2022-09-04T16:26:08.704Z,26.7
2022-09-04T16:28:35.344Z,26.7
2022-09-04T16:31:01.941Z,26.8
2022-09-04T16:33:28.593Z,26.7
2022-09-04T16:35:55.195Z,26.7
2022-09-04T16:40:48.448Z,26.6
2022-09-04T16:43:15.080Z,26.5
2022-09-04T16:45:40.204Z,26.4
2022-09-04T16:48:06.827Z,26.4
2022-09-04T16:50:33.453Z,26.2
2022-09-04T16:55:26.707Z,25.9
2022-09-04T16:57:53.315Z,25.8
2022-09-04T17:00:19.949Z,25.6
2022-09-04T17:02:46.588Z,25.4
2022-09-04T17:05:13.241Z,25.2
2022-09-04T17:10:06.431Z,25
2022-09-04T17:12:33.057Z,24.8
2022-09-04T17:14:59.686Z,24.7
2022-09-04T17:17:24.807Z,24.6
2022-09-04T17:19:51.433Z,24.4
2022-09-04T17:24:44.678Z,24
2022-09-04T17:27:11.320Z,23.9
2022-09-04T17:29:37.925Z,23.7
2022-09-04T17:32:04.565Z,23.6
2022-09-04T17:34:31.170Z,23.5
2022-09-04T17:36:57.789Z,23.3
2022-09-04T17:39:24.414Z,23.1
2022-09-04T17:41:51.046Z,23
2022-09-04T17:44:17.678Z,22.9
2022-09-04T17:49:10.910Z,22.6
2022-09-04T17:54:02.669Z,22.3
2022-09-04T17:56:29.295Z,22.1
2022-09-04T17:58:55.942Z,22
2022-09-04T18:01:22.542Z,21.9
2022-09-04T18:03:49.152Z,21.7
2022-09-04T18:08:42.418Z,21.5
2022-09-04T18:11:09.021Z,21.4
2022-09-04T18:13:35.659Z,21.3
2022-09-04T18:18:28.900Z,21
2022-09-04T18:20:55.521Z,20.8
2022-09-04T18:23:22.146Z,20.7
2022-09-04T18:25:47.268Z,20.5
2022-09-04T18:28:13.916Z,20.3
2022-09-04T18:30:40.511Z,20.1
2022-09-04T18:33:07.137Z,20
2022-09-04T18:35:33.764Z,19.8
2022-09-04T18:38:00.383Z,19.6
2022-09-04T18:40:27.010Z,19.5
2022-09-04T18:42:53.641Z,19.4
2022-09-04T18:45:20.258Z,19.1
2022-09-04T18:47:46.876Z,19.1
2022-09-04T18:52:40.130Z,18.9
2022-09-04T18:55:06.743Z,18.8
2022-09-04T18:57:31.882Z,18.7
2022-09-04T18:59:58.509Z,18.6
2022-09-04T19:02:25.135Z,18.6
2022-09-04T19:04:51.754Z,18.6
2022-09-04T19:07:18.377Z,18.6
2022-09-04T19:09:43.493Z,18.5
2022-09-04T19:12:08.696Z,18.4
2022-09-04T19:14:35.277Z,18.3
2022-09-04T19:17:01.890Z,18.2
2022-09-04T19:19:28.480Z,18.1
2022-09-04T19:21:55.109Z,18
2022-09-04T19:24:21.738Z,18
2022-09-04T19:26:48.371Z,18
2022-09-04T19:29:14.986Z,17.9
2022-09-04T19:31:41.631Z,17.9
2022-09-04T19:34:08.262Z,17.8
2022-09-04T19:36:33.378Z,17.6
2022-09-04T19:38:58.490Z,17.4
2022-09-04T19:41:25.126Z,17.3
2022-09-04T19:43:51.742Z,17.3
2022-09-04T19:46:18.354Z,17.3
2022-09-04T19:48:45.014Z,17.2
2022-09-04T19:51:11.611Z,17.2
2022-09-04T19:53:36.743Z,17.2
2022-09-04T19:56:03.399Z,17.1
2022-09-04T19:58:29.984Z,17
2022-09-04T20:00:56.616Z,17
2022-09-04T20:03:23.234Z,17
2022-09-04T20:05:49.849Z,17
2022-09-04T20:08:16.478Z,16.9
2022-09-04T20:10:43.104Z,16.8
2022-09-04T20:13:09.721Z,16.8
2022-09-04T20:15:36.342Z,16.8
2022-09-04T20:18:02.976Z,16.7
2022-09-04T20:20:29.596Z,16.6
2022-09-04T20:22:56.232Z,16.5
2022-09-04T20:25:21.332Z,16.4
2022-09-04T20:27:47.987Z,16.4
2022-09-04T20:30:14.592Z,16.3
2022-09-04T20:32:41.234Z,16.3
2022-09-04T20:35:07.822Z,16.3
2022-09-04T20:37:34.442Z,16.2
2022-09-04T20:40:01.104Z,16.1
2022-09-04T20:42:27.709Z,16.2
2022-09-04T20:44:54.325Z,16.1
2022-09-04T20:47:20.960Z,16.1
2022-09-04T20:49:47.558Z,16
2022-09-04T20:52:14.194Z,16
2022-09-04T20:54:40.823Z,15.9
2022-09-04T20:57:05.940Z,15.9
2022-09-04T20:59:32.582Z,15.9
2022-09-04T21:04:25.818Z,15.8
2022-09-04T21:06:52.429Z,15.8
2022-09-04T21:09:19.054Z,15.8
2022-09-04T21:11:45.720Z,15.8
2022-09-04T21:14:12.296Z,15.7
2022-09-04T21:16:38.923Z,15.7
2022-09-04T21:19:05.532Z,15.7
2022-09-04T21:21:32.157Z,15.6
2022-09-04T21:23:58.795Z,15.5
2022-09-04T21:26:25.428Z,15.5
2022-09-04T21:28:50.599Z,15.5
2022-09-04T21:31:17.209Z,15.5
2022-09-04T21:33:43.812Z,15.4
2022-09-04T21:36:10.399Z,15.4
2022-09-04T21:38:37.016Z,15.3
2022-09-04T21:41:03.680Z,15.3
2022-09-04T21:43:30.300Z,15.3
2022-09-04T21:45:56.898Z,15.3
2022-09-04T21:48:23.522Z,15.3
2022-09-04T21:50:50.147Z,15.2
2022-09-04T21:53:16.779Z,15.1
2022-09-04T21:55:43.386Z,15.1
2022-09-04T21:58:10.009Z,15
2022-09-04T22:00:35.135Z,15
2022-09-04T22:03:01.764Z,14.9
2022-09-04T22:05:28.371Z,14.9
2022-09-04T22:07:55.004Z,14.9
2022-09-04T22:10:21.631Z,14.9
2022-09-04T22:12:48.270Z,14.9
2022-09-04T22:15:14.893Z,14.9
2022-09-04T22:17:41.501Z,14.9
2022-09-04T22:20:08.105Z,14.9
2022-09-04T22:22:34.757Z,14.8
2022-09-04T22:25:01.372Z,14.8
2022-09-04T22:27:27.980Z,14.7
2022-09-04T22:29:54.598Z,14.6
2022-09-04T22:32:21.228Z,14.4
2022-09-04T22:34:46.353Z,14.3
2022-09-04T22:37:13.003Z,14.3
2022-09-04T22:39:39.603Z,14.4
2022-09-04T22:42:06.232Z,14.5
2022-09-04T22:44:32.675Z,14.5
2022-09-04T22:46:59.283Z,14.5
2022-09-04T22:49:25.896Z,14.5
2022-09-04T22:51:52.547Z,14.5
2022-09-04T22:54:19.188Z,14.5
2022-09-04T22:56:45.763Z,14.5
2022-09-04T22:59:12.392Z,14.4
2022-09-04T23:01:39.039Z,14.3
2022-09-04T23:04:05.671Z,14.3
2022-09-04T23:06:30.756Z,14.2
2022-09-04T23:08:57.383Z,14.2
2022-09-04T23:11:24.006Z,14.2
2022-09-04T23:13:50.651Z,14.2
2022-09-04T23:16:17.255Z,14.2
2022-09-04T23:18:43.882Z,14.1
2022-09-04T23:21:10.493Z,14.1
2022-09-04T23:23:37.122Z,14
2022-09-04T23:26:03.738Z,14.1
2022-09-04T23:28:30.367Z,14.1
2022-09-04T23:30:57.028Z,14
2022-09-04T23:33:23.604Z,14
2022-09-04T23:35:50.268Z,14
2022-09-04T23:38:15.350Z,13.9
2022-09-04T23:40:41.991Z,13.9
2022-09-04T23:43:08.616Z,14
2022-09-04T23:45:35.231Z,13.9
2022-09-04T23:48:01.860Z,13.9
2022-09-04T23:50:28.467Z,13.9
2022-09-04T23:52:55.102Z,13.9
2022-09-04T23:55:21.757Z,13.8
2022-09-04T23:57:48.353Z,13.8
